createdAt,value
2017-05-04T00:00:14.984Z,1013.05
2017-05-04T00:01:14.961Z,1013.04
2017-05-04T00:02:14.941Z,1013.01
2017-05-04T00:03:14.921Z,1012.95
2017-05-04T00:04:14.901Z,1012.95
2017-05-04T00:05:14.883Z,1012.99
2017-05-04T00:06:14.870Z,1013
2017-05-04T00:07:14.850Z,1012.98
2017-05-04T00:08:14.829Z,1012.95
2017-05-04T00:09:14.814Z,1012.96
2017-05-04T00:10:14.792Z,1012.95
2017-05-04T00:11:14.772Z,1012.98
2017-05-04T00:12:14.754Z,1012.96
2017-05-04T00:13:14.732Z,1012.97
2017-05-04T00:14:14.716Z,1012.97
2017-05-04T00:15:14.699Z,1012.97
2017-05-04T00:16:14.680Z,1012.95
2017-05-04T00:17:14.664Z,1012.98
2017-05-04T00:18:14.639Z,1012.96
2017-05-04T00:19:14.619Z,1012.97
2017-05-04T00:20:14.603Z,1012.97
2017-05-04T00:21:14.583Z,1012.94
2017-05-04T00:22:14.563Z,1012.97
2017-05-04T00:23:14.542Z,1012.95
2017-05-04T00:24:14.533Z,1012.99
2017-05-04T00:25:14.510Z,1012.98
2017-05-04T00:26:14.492Z,1012.95
2017-05-04T00:27:14.472Z,1012.95
2017-05-04T00:28:14.451Z,1012.97
2017-05-04T00:29:14.494Z,1012.93
2017-05-04T00:30:14.415Z,1012.93
2017-05-04T00:31:14.495Z,1012.94
2017-05-04T00:32:14.373Z,1012.95
2017-05-04T00:33:14.356Z,1012.92
2017-05-04T00:34:14.343Z,1012.95
2017-05-04T00:35:14.385Z,1012.89
2017-05-04T00:36:14.298Z,1012.91
2017-05-04T00:37:14.284Z,1012.87
2017-05-04T00:38:14.260Z,1012.89
2017-05-04T00:39:14.293Z,1012.86
2017-05-04T00:40:14.229Z,1012.85
2017-05-04T00:41:14.302Z,1012.84
2017-05-04T00:42:14.184Z,1012.82
2017-05-04T00:43:14.170Z,1012.86
2017-05-04T00:44:14.147Z,1012.85
2017-05-04T00:45:14.217Z,1012.79
2017-05-04T00:46:14.113Z,1012.76
2017-05-04T00:47:14.193Z,1012.78
2017-05-04T00:48:14.072Z,1012.74
2017-05-04T00:49:14.154Z,1012.81
2017-05-04T00:50:14.035Z,1012.76
2017-05-04T00:51:14.117Z,1012.77
2017-05-04T00:52:13.996Z,1012.77
2017-05-04T00:53:14.133Z,1012.76
2017-05-04T00:54:13.963Z,1012.75
2017-05-04T00:55:13.943Z,1012.74
2017-05-04T00:56:13.925Z,1012.69
2017-05-04T00:57:13.946Z,1012.7
2017-05-04T00:58:13.882Z,1012.69
2017-05-04T00:59:13.962Z,1012.67
2017-05-04T01:00:13.846Z,1012.65
2017-05-04T01:01:13.926Z,1012.68
2017-05-04T01:02:13.814Z,1012.69
2017-05-04T01:03:13.793Z,1012.68
2017-05-04T01:04:13.772Z,1012.63
2017-05-04T01:05:13.761Z,1012.67
2017-05-04T01:06:13.734Z,1012.67
2017-05-04T01:07:13.718Z,1012.61
2017-05-04T01:08:13.693Z,1012.63
2017-05-04T01:09:13.825Z,1012.66
2017-05-04T01:10:13.653Z,1012.65
2017-05-04T01:11:13.638Z,1012.64
2017-05-04T01:12:13.618Z,1012.64
2017-05-04T01:13:13.605Z,1012.62
2017-05-04T01:14:13.581Z,1012.66
2017-05-04T01:15:13.566Z,1012.61
2017-05-04T01:16:13.543Z,1012.71
2017-05-04T01:17:13.523Z,1012.66
2017-05-04T01:18:13.503Z,1012.66
2017-05-04T01:19:13.491Z,1012.62
2017-05-04T01:20:13.468Z,1012.68
2017-05-04T01:21:13.450Z,1012.65
2017-05-04T01:22:13.427Z,1012.61
2017-05-04T01:23:13.412Z,1012.62
2017-05-04T01:24:13.393Z,1012.63
2017-05-04T01:25:13.372Z,1012.63
2017-05-04T01:26:13.355Z,1012.65
2017-05-04T01:27:13.333Z,1012.61
2017-05-04T01:28:13.323Z,1012.61
2017-05-04T01:29:13.297Z,1012.61
2017-05-04T01:30:13.277Z,1012.63
2017-05-04T01:31:13.260Z,1012.64
2017-05-04T01:32:13.237Z,1012.61
2017-05-04T01:33:13.221Z,1012.59
2017-05-04T01:34:13.203Z,1012.6
2017-05-04T01:35:13.185Z,1012.61
2017-05-04T01:36:13.163Z,1012.58
2017-05-04T01:37:13.145Z,1012.6
2017-05-04T01:38:13.122Z,1012.57
2017-05-04T01:39:13.107Z,1012.61
2017-05-04T01:40:13.087Z,1012.57
2017-05-04T01:41:13.068Z,1012.5
2017-05-04T01:42:13.052Z,1012.5
2017-05-04T01:43:13.035Z,1012.5
2017-05-04T01:44:13.012Z,1012.52
2017-05-04T01:45:12.992Z,1012.56
2017-05-04T01:46:12.976Z,1012.58
2017-05-04T01:47:12.957Z,1012.54
2017-05-04T01:48:12.933Z,1012.53
2017-05-04T01:49:12.916Z,1012.49
2017-05-04T01:50:12.902Z,1012.47
2017-05-04T01:51:12.877Z,1012.49
2017-05-04T01:52:12.862Z,1012.5
2017-05-04T01:53:12.835Z,1012.53
2017-05-04T01:54:12.823Z,1012.48
2017-05-04T01:55:12.801Z,1012.48
2017-05-04T01:56:12.783Z,1012.49
2017-05-04T01:57:12.763Z,1012.46
2017-05-04T01:58:12.742Z,1012.44
2017-05-04T01:59:12.723Z,1012.49
2017-05-04T02:00:12.703Z,1012.48
2017-05-04T02:01:12.733Z,1012.49
2017-05-04T02:02:12.677Z,1012.45
2017-05-04T02:03:12.655Z,1012.46
2017-05-04T02:04:12.635Z,1012.44
2017-05-04T02:05:12.711Z,1012.42
2017-05-04T02:06:12.591Z,1012.46
2017-05-04T02:07:12.673Z,1012.46
2017-05-04T02:08:12.552Z,1012.47
2017-05-04T02:09:12.633Z,1012.48
2017-05-04T02:10:12.522Z,1012.44
2017-05-04T02:11:12.546Z,1012.44
2017-05-04T02:12:12.474Z,1012.43
2017-05-04T02:13:12.464Z,1012.44
2017-05-04T02:14:12.437Z,1012.4
2017-05-04T02:15:12.482Z,1012.41
2017-05-04T02:16:12.399Z,1012.41
2017-05-04T02:17:12.435Z,1012.43
2017-05-04T02:18:12.364Z,1012.39
2017-05-04T02:19:12.416Z,1012.4
2017-05-04T02:20:12.324Z,1012.39
2017-05-04T02:21:12.354Z,1012.43
2017-05-04T02:22:12.283Z,1012.38
2017-05-04T02:23:12.315Z,1012.4
2017-05-04T02:24:12.242Z,1012.43
2017-05-04T02:25:12.228Z,1012.38
2017-05-04T02:26:12.222Z,1012.36
2017-05-04T02:27:12.192Z,1012.39
2017-05-04T02:28:12.184Z,1012.39
2017-05-04T02:29:12.153Z,1012.41
2017-05-04T02:30:12.133Z,1012.41
2017-05-04T02:31:12.114Z,1012.36
2017-05-04T02:32:12.094Z,1012.42
2017-05-04T02:33:12.073Z,1012.37
2017-05-04T02:34:12.054Z,1012.43
2017-05-04T02:35:12.102Z,1012.39
2017-05-04T02:36:12.011Z,1012.43
2017-05-04T02:37:11.995Z,1012.45
2017-05-04T02:38:11.973Z,1012.44
2017-05-04T02:39:12.036Z,1012.44
2017-05-04T02:40:11.931Z,1012.41
2017-05-04T02:41:11.924Z,1012.42
2017-05-04T02:42:11.893Z,1012.47
2017-05-04T02:43:11.957Z,1012.44
2017-05-04T02:44:11.860Z,1012.44
2017-05-04T02:45:11.844Z,1012.4
2017-05-04T02:46:11.818Z,1012.41
2017-05-04T02:47:11.806Z,1012.4
2017-05-04T02:48:11.781Z,1012.38
2017-05-04T02:49:11.815Z,1012.35
2017-05-04T02:50:11.744Z,1012.35
2017-05-04T02:51:11.721Z,1012.38
2017-05-04T02:52:11.703Z,1012.37
2017-05-04T02:53:11.680Z,1012.4
2017-05-04T02:54:11.661Z,1012.4
2017-05-04T02:55:11.643Z,1012.38
2017-05-04T02:56:11.619Z,1012.34
2017-05-04T02:57:11.603Z,1012.4
2017-05-04T02:58:11.583Z,1012.38
2017-05-04T02:59:11.562Z,1012.39
2017-05-04T03:00:11.544Z,1012.4
2017-05-04T03:01:11.522Z,1012.38
2017-05-04T03:02:11.503Z,1012.38
2017-05-04T03:03:11.492Z,1012.39
2017-05-04T03:04:11.471Z,1012.36
2017-05-04T03:05:11.453Z,1012.4
2017-05-04T03:06:11.432Z,1012.39
2017-05-04T03:07:11.407Z,1012.32
2017-05-04T03:08:11.385Z,1012.32
2017-05-04T03:09:11.378Z,1012.31
2017-05-04T03:10:11.351Z,1012.3
2017-05-04T03:11:11.335Z,1012.37
2017-05-04T03:12:11.312Z,1012.34
2017-05-04T03:13:11.292Z,1012.36
2017-05-04T03:14:11.273Z,1012.34
2017-05-04T03:15:11.251Z,1012.33
2017-05-04T03:16:11.234Z,1012.31
2017-05-04T03:17:11.213Z,1012.34
2017-05-04T03:18:11.191Z,1012.34
2017-05-04T03:19:11.177Z,1012.3
2017-05-04T03:20:11.153Z,1012.29
2017-05-04T03:21:11.144Z,1012.3
2017-05-04T03:22:11.111Z,1012.31
2017-05-04T03:23:11.092Z,1012.32
2017-05-04T03:24:11.075Z,1012.32
2017-05-04T03:25:11.053Z,1012.32
2017-05-04T03:26:11.036Z,1012.3
2017-05-04T03:27:11.013Z,1012.3
2017-05-04T03:28:10.994Z,1012.33
2017-05-04T03:29:10.974Z,1012.31
2017-05-04T03:30:10.954Z,1012.33
2017-05-04T03:31:10.932Z,1012.3
2017-05-04T03:32:10.914Z,1012.33
2017-05-04T03:33:10.893Z,1012.3
2017-05-04T03:34:10.876Z,1012.28
2017-05-04T03:35:10.854Z,1012.28
2017-05-04T03:36:10.840Z,1012.3
2017-05-04T03:37:10.818Z,1012.27
2017-05-04T03:38:10.800Z,1012.28
2017-05-04T03:39:10.775Z,1012.27
2017-05-04T03:40:10.766Z,1012.27
2017-05-04T03:41:10.743Z,1012.24
2017-05-04T03:42:10.735Z,1012.27
2017-05-04T03:43:10.743Z,1012.21
2017-05-04T03:44:10.684Z,1012.25
2017-05-04T03:45:10.663Z,1012.26
2017-05-04T03:46:10.637Z,1012.28
2017-05-04T03:47:10.617Z,1012.25
2017-05-04T03:48:10.596Z,1012.29
2017-05-04T03:49:10.585Z,1012.27
2017-05-04T03:50:10.562Z,1012.27
2017-05-04T03:51:10.541Z,1012.27
2017-05-04T03:52:10.525Z,1012.31
2017-05-04T03:53:10.506Z,1012.29
2017-05-04T03:54:10.481Z,1012.3
2017-05-04T03:55:10.462Z,1012.31
2017-05-04T03:56:10.444Z,1012.36
2017-05-04T03:57:10.422Z,1012.37
2017-05-04T03:58:10.402Z,1012.35
2017-05-04T03:59:10.383Z,1012.31
2017-05-04T04:00:10.363Z,1012.35
2017-05-04T04:01:10.348Z,1012.35
2017-05-04T04:02:10.320Z,1012.35
2017-05-04T04:03:10.304Z,1012.34
2017-05-04T04:04:10.283Z,1012.36
2017-05-04T04:05:10.262Z,1012.32
2017-05-04T04:06:10.244Z,1012.33
2017-05-04T04:07:10.232Z,1012.33
2017-05-04T04:08:10.203Z,1012.34
2017-05-04T04:09:10.196Z,1012.36
2017-05-04T04:10:10.162Z,1012.35
2017-05-04T04:11:10.153Z,1012.39
2017-05-04T04:12:10.125Z,1012.34
2017-05-04T04:13:10.114Z,1012.38
2017-05-04T04:14:10.083Z,1012.32
2017-05-04T04:15:10.074Z,1012.31
2017-05-04T04:16:10.043Z,1012.34
2017-05-04T04:17:10.026Z,1012.32
2017-05-04T04:18:10.007Z,1012.34
2017-05-04T04:19:09.986Z,1012.31
2017-05-04T04:20:09.974Z,1012.3
2017-05-04T04:21:09.955Z,1012.34
2017-05-04T04:22:09.931Z,1012.32
2017-05-04T04:23:09.915Z,1012.34
2017-05-04T04:24:09.892Z,1012.33
2017-05-04T04:25:09.870Z,1012.31
2017-05-04T04:26:09.854Z,1012.34
2017-05-04T04:27:09.835Z,1012.35
2017-05-04T04:28:09.808Z,1012.33
2017-05-04T04:29:09.796Z,1012.34
2017-05-04T04:30:09.775Z,1012.35
2017-05-04T04:31:09.748Z,1012.29
2017-05-04T04:32:09.727Z,1012.28
2017-05-04T04:33:09.714Z,1012.32
2017-05-04T04:34:09.694Z,1012.33
2017-05-04T04:35:09.669Z,1012.34
2017-05-04T04:36:09.649Z,1012.34
2017-05-04T04:37:09.630Z,1012.34
2017-05-04T04:38:09.608Z,1012.32
2017-05-04T04:39:09.589Z,1012.3
2017-05-04T04:40:09.576Z,1012.34
2017-05-04T04:41:09.551Z,1012.33
2017-05-04T04:42:09.534Z,1012.29
2017-05-04T04:43:09.512Z,1012.32
2017-05-04T04:44:09.496Z,1012.3
2017-05-04T04:45:09.473Z,1012.3
2017-05-04T04:46:09.450Z,1012.26
2017-05-04T04:47:09.433Z,1012.3
2017-05-04T04:48:09.413Z,1012.29
2017-05-04T04:49:09.393Z,1012.29
2017-05-04T04:50:09.374Z,1012.29
2017-05-04T04:51:09.349Z,1012.27
2017-05-04T04:52:09.334Z,1012.24
2017-05-04T04:53:09.313Z,1012.24
2017-05-04T04:54:09.290Z,1012.27
2017-05-04T04:55:09.273Z,1012.24
2017-05-04T04:56:09.252Z,1012.16
2017-05-04T04:57:09.228Z,1012.17
2017-05-04T04:58:09.210Z,1012.19
2017-05-04T04:59:09.194Z,1012.14
2017-05-04T05:00:09.174Z,1012.16
2017-05-04T05:01:09.150Z,1012.15
2017-05-04T05:02:09.131Z,1012.15
2017-05-04T05:03:09.117Z,1012.13
2017-05-04T05:04:09.093Z,1012.12
2017-05-04T05:05:09.071Z,1012.1
2017-05-04T05:06:09.052Z,1012.12
2017-05-04T05:07:09.033Z,1012.06
2017-05-04T05:08:09.012Z,1012.06
2017-05-04T05:09:08.991Z,1012.09
2017-05-04T05:10:08.974Z,1012.07
2017-05-04T05:11:08.953Z,1012.1
2017-05-04T05:12:08.936Z,1012.07
2017-05-04T05:13:08.912Z,1012.09
2017-05-04T05:14:08.904Z,1012.09
2017-05-04T05:15:08.874Z,1012.12
2017-05-04T05:16:08.865Z,1012.11
2017-05-04T05:17:08.835Z,1012.09
2017-05-04T05:18:08.815Z,1012.09
2017-05-04T05:19:08.796Z,1012.1
2017-05-04T05:20:08.776Z,1012.1
2017-05-04T05:21:08.762Z,1012.08
2017-05-04T05:22:08.740Z,1012.11
2017-05-04T05:23:08.717Z,1012.07
2017-05-04T05:24:08.701Z,1012.08
2017-05-04T05:25:08.675Z,1012.08
2017-05-04T05:26:08.660Z,1012.09
2017-05-04T05:27:08.638Z,1012.11
2017-05-04T05:28:08.615Z,1012.07
2017-05-04T05:29:08.598Z,1012.06
2017-05-04T05:30:08.585Z,1012.06
2017-05-04T05:31:08.562Z,1012.09
2017-05-04T05:32:08.537Z,1012.12
2017-05-04T05:33:08.519Z,1012.08
2017-05-04T05:34:08.502Z,1012.12
2017-05-04T05:35:08.478Z,1012.09
2017-05-04T05:36:08.461Z,1012.08
2017-05-04T05:37:08.448Z,1012.08
2017-05-04T05:38:08.424Z,1012.12
2017-05-04T05:39:08.412Z,1012.11
2017-05-04T05:40:08.383Z,1012.08
2017-05-04T05:41:08.373Z,1012.1
2017-05-04T05:42:08.346Z,1012.15
2017-05-04T05:43:08.330Z,1012.15
2017-05-04T05:44:08.304Z,1012.14
2017-05-04T05:45:08.292Z,1012.19
2017-05-04T05:46:08.268Z,1012.19
2017-05-04T05:47:08.252Z,1012.13
2017-05-04T05:48:08.228Z,1012.13
2017-05-04T05:49:08.216Z,1012.14
2017-05-04T05:50:08.188Z,1012.1
2017-05-04T05:51:08.174Z,1012.11
2017-05-04T05:52:08.149Z,1012.1
2017-05-04T05:53:08.132Z,1012.11
2017-05-04T05:54:08.110Z,1012.12
2017-05-04T05:55:08.093Z,1012.11
2017-05-04T05:56:08.075Z,1012.11
2017-05-04T05:57:08.050Z,1012.09
2017-05-04T05:58:08.037Z,1012.13
2017-05-04T05:59:08.022Z,1012.18
2017-05-04T06:00:08.002Z,1012.19
2017-05-04T06:01:07.983Z,1012.21
2017-05-04T06:02:07.960Z,1012.23
2017-05-04T06:03:07.942Z,1012.18
2017-05-04T06:04:07.921Z,1012.2
2017-05-04T06:05:07.898Z,1012.23
2017-05-04T06:06:07.881Z,1012.24
2017-05-04T06:07:07.862Z,1012.24
2017-05-04T06:08:07.842Z,1012.28
2017-05-04T06:09:07.826Z,1012.23
2017-05-04T06:10:07.799Z,1012.24
2017-05-04T06:11:07.783Z,1012.22
2017-05-04T06:12:07.767Z,1012.28
2017-05-04T06:13:07.753Z,1012.26
2017-05-04T06:14:07.728Z,1012.29
2017-05-04T06:15:07.706Z,1012.27
2017-05-04T06:16:07.689Z,1012.29
2017-05-04T06:17:07.675Z,1012.26
2017-05-04T06:18:07.655Z,1012.27
2017-05-04T06:19:07.629Z,1012.26
2017-05-04T06:20:07.611Z,1012.28
2017-05-04T06:21:07.594Z,1012.31
2017-05-04T06:22:07.574Z,1012.27
2017-05-04T06:23:07.562Z,1012.3
2017-05-04T06:24:07.540Z,1012.24
2017-05-04T06:25:07.516Z,1012.23
2017-05-04T06:26:07.499Z,1012.24
2017-05-04T06:27:07.487Z,1012.28
2017-05-04T06:28:07.465Z,1012.24
2017-05-04T06:29:07.441Z,1012.3
2017-05-04T06:30:07.422Z,1012.32
2017-05-04T06:31:07.402Z,1012.32
2017-05-04T06:32:07.384Z,1012.32
2017-05-04T06:33:07.364Z,1012.34
2017-05-04T06:34:07.344Z,1012.36
2017-05-04T06:35:07.326Z,1012.34
2017-05-04T06:36:07.312Z,1012.39
2017-05-04T06:37:07.297Z,1012.39
2017-05-04T06:38:07.273Z,1012.4
2017-05-04T06:39:07.252Z,1012.37
2017-05-04T06:40:07.233Z,1012.41
2017-05-04T06:41:07.212Z,1012.39
2017-05-04T06:42:07.193Z,1012.4
2017-05-04T06:43:07.169Z,1012.43
2017-05-04T06:44:07.148Z,1012.42
2017-05-04T06:45:07.136Z,1012.45
2017-05-04T06:46:07.110Z,1012.45
2017-05-04T06:47:07.101Z,1012.46
2017-05-04T06:48:07.079Z,1012.43
2017-05-04T06:49:07.063Z,1012.38
2017-05-04T06:50:07.041Z,1012.41
2017-05-04T06:51:07.021Z,1012.41
2017-05-04T06:52:07.001Z,1012.4
2017-05-04T06:53:06.985Z,1012.41
2017-05-04T06:54:06.961Z,1012.42
2017-05-04T06:55:06.949Z,1012.45
2017-05-04T06:56:06.930Z,1012.4
2017-05-04T06:57:06.908Z,1012.39
2017-05-04T06:58:06.890Z,1012.4
2017-05-04T06:59:06.881Z,1012.42
2017-05-04T07:00:06.851Z,1012.37
2017-05-04T07:01:06.830Z,1012.38
2017-05-04T07:02:06.812Z,1012.36
2017-05-04T07:03:06.800Z,1012.43
2017-05-04T07:04:06.831Z,1012.38
2017-05-04T07:05:06.761Z,1012.39
2017-05-04T07:06:06.748Z,1012.41
2017-05-04T07:07:06.721Z,1012.4
2017-05-04T07:08:06.702Z,1012.4
2017-05-04T07:09:06.683Z,1012.42
2017-05-04T07:10:06.664Z,1012.37
2017-05-04T07:11:06.653Z,1012.39
2017-05-04T07:12:06.633Z,1012.42
2017-05-04T07:13:06.607Z,1012.42
2017-05-04T07:14:06.591Z,1012.43
2017-05-04T07:15:06.571Z,1012.43
2017-05-04T07:16:06.553Z,1012.48
2017-05-04T07:17:06.531Z,1012.47
2017-05-04T07:18:06.521Z,1012.5
2017-05-04T07:19:06.501Z,1012.48
2017-05-04T07:20:06.475Z,1012.51
2017-05-04T07:21:06.460Z,1012.46
2017-05-04T07:22:06.440Z,1012.5
2017-05-04T07:23:06.421Z,1012.48
2017-05-04T07:24:06.401Z,1012.45
2017-05-04T07:25:06.382Z,1012.47
2017-05-04T07:26:06.365Z,1012.52
2017-05-04T07:27:06.351Z,1012.52
2017-05-04T07:28:06.331Z,1012.56
2017-05-04T07:29:06.312Z,1012.52
2017-05-04T07:30:06.291Z,1012.58
2017-05-04T07:31:06.271Z,1012.59
2017-05-04T07:32:06.255Z,1012.65
2017-05-04T07:33:06.249Z,1012.62
2017-05-04T07:34:06.221Z,1012.61
2017-05-04T07:35:06.201Z,1012.6
2017-05-04T07:36:06.186Z,1012.6
2017-05-04T07:37:06.168Z,1012.6
2017-05-04T07:38:06.141Z,1012.67
2017-05-04T07:39:06.134Z,1012.59
2017-05-04T07:40:06.109Z,1012.61
2017-05-04T07:41:06.098Z,1012.62
2017-05-04T07:42:06.072Z,1012.63
2017-05-04T07:43:06.058Z,1012.61
2017-05-04T07:44:06.033Z,1012.61
2017-05-04T07:45:06.020Z,1012.61
2017-05-04T07:46:06.001Z,1012.55
2017-05-04T07:47:06.115Z,1012.54
2017-05-04T07:48:05.971Z,1012.57
2017-05-04T07:49:05.943Z,1012.53
2017-05-04T07:50:05.928Z,1012.68
2017-05-04T07:51:05.909Z,1012.68
2017-05-04T07:52:05.890Z,1012.66
2017-05-04T07:53:05.883Z,1012.62
2017-05-04T07:54:05.859Z,1012.63
2017-05-04T07:55:05.843Z,1012.58
2017-05-04T07:56:05.831Z,1012.61
2017-05-04T07:57:05.813Z,1012.57
2017-05-04T07:58:05.792Z,1012.69
2017-05-04T07:59:05.783Z,1012.89
2017-05-04T08:00:05.763Z,1012.64
2017-05-04T08:01:05.744Z,1012.63
2017-05-04T08:02:05.733Z,1012.65
2017-05-04T08:03:05.710Z,1012.63
2017-05-04T08:04:05.724Z,1012.63
2017-05-04T08:05:05.681Z,1012.68
2017-05-04T08:06:05.673Z,1012.75
2017-05-04T08:07:05.654Z,1012.73
2017-05-04T08:08:05.635Z,1012.69
2017-05-04T08:09:05.622Z,1012.69
2017-05-04T08:10:05.605Z,1012.77
2017-05-04T08:11:05.592Z,1012.68
2017-05-04T08:12:05.584Z,1012.72
2017-05-04T08:13:05.562Z,1012.6
2017-05-04T08:14:05.550Z,1012.59
2017-05-04T08:15:05.544Z,1012.6
2017-05-04T08:16:05.521Z,1012.66
2017-05-04T08:17:05.511Z,1012.68
2017-05-04T08:18:05.493Z,1012.72
2017-05-04T08:19:05.482Z,1012.74
2017-05-04T08:20:05.468Z,1012.76
2017-05-04T08:21:05.464Z,1012.81
2017-05-04T08:22:05.445Z,1012.76
2017-05-04T08:23:05.428Z,1012.78
2017-05-04T08:24:05.423Z,1012.83
2017-05-04T08:25:05.402Z,1012.79
2017-05-04T08:26:05.391Z,1012.77
2017-05-04T08:27:05.379Z,1012.8
2017-05-04T08:28:05.374Z,1012.81
2017-05-04T08:29:05.359Z,1012.82
2017-05-04T08:30:05.352Z,1012.77
2017-05-04T08:31:05.338Z,1012.82
2017-05-04T08:32:05.323Z,1012.77
2017-05-04T08:33:05.324Z,1012.81
2017-05-04T08:34:05.309Z,1012.83
2017-05-04T08:35:05.291Z,1012.89
2017-05-04T08:36:05.284Z,1012.75
2017-05-04T08:37:05.272Z,1012.79
2017-05-04T08:38:05.261Z,1012.79
2017-05-04T08:39:05.251Z,1012.75
2017-05-04T08:40:05.245Z,1012.64
2017-05-04T08:41:05.232Z,1012.89
2017-05-04T08:42:05.222Z,1012.67
2017-05-04T08:43:05.211Z,1012.69
2017-05-04T08:44:05.202Z,1012.7
2017-05-04T08:45:05.186Z,1012.75
2017-05-04T08:46:05.182Z,1012.74
2017-05-04T08:47:05.162Z,1012.71
2017-05-04T08:48:05.152Z,1012.77
2017-05-04T08:49:05.143Z,1012.76
2017-05-04T08:50:05.126Z,1012.71
2017-05-04T08:51:05.122Z,1012.7
2017-05-04T08:52:05.103Z,1012.7
2017-05-04T08:53:05.093Z,1012.68
2017-05-04T08:54:05.074Z,1012.67
2017-05-04T08:55:05.063Z,1012.7
2017-05-04T08:56:05.054Z,1012.82
2017-05-04T08:57:05.039Z,1012.76
2017-05-04T08:58:05.023Z,1012.73
2017-05-04T08:59:05.012Z,1012.7
2017-05-04T09:00:04.993Z,1012.66
2017-05-04T09:01:04.986Z,1012.67
2017-05-04T09:02:04.970Z,1012.64
2017-05-04T09:03:04.948Z,1012.65
2017-05-04T09:04:04.940Z,1012.68
2017-05-04T09:05:04.924Z,1012.67
2017-05-04T09:06:04.908Z,1012.67
2017-05-04T09:07:04.894Z,1012.68
2017-05-04T09:08:04.882Z,1012.73
2017-05-04T09:09:04.876Z,1012.75
2017-05-04T09:10:04.852Z,1012.69
2017-05-04T09:11:04.834Z,1012.7
2017-05-04T09:12:04.824Z,1012.7
2017-05-04T09:13:04.802Z,1012.7
2017-05-04T09:14:04.788Z,1012.68
2017-05-04T09:15:04.772Z,1012.69
2017-05-04T09:16:04.763Z,1012.68
2017-05-04T09:17:04.743Z,1012.62
2017-05-04T09:18:04.727Z,1012.64
2017-05-04T09:19:04.714Z,1012.65
2017-05-04T09:20:04.702Z,1012.68
2017-05-04T09:21:04.686Z,1012.68
2017-05-04T09:22:04.670Z,1012.69
2017-05-04T09:23:04.652Z,1012.67
2017-05-04T09:24:04.644Z,1012.66
2017-05-04T09:25:04.622Z,1012.7
2017-05-04T09:26:04.694Z,1012.69
2017-05-04T09:27:04.590Z,1012.66
2017-05-04T09:28:04.576Z,1012.62
2017-05-04T09:29:04.559Z,1012.58
2017-05-04T09:30:04.603Z,1012.58
2017-05-04T09:31:04.535Z,1012.53
2017-05-04T09:32:04.525Z,1012.57
2017-05-04T09:33:04.513Z,1012.58
2017-05-04T09:34:04.493Z,1012.51
2017-05-04T09:35:04.483Z,1012.48
2017-05-04T09:36:04.574Z,1012.55
2017-05-04T09:37:04.453Z,1012.54
2017-05-04T09:38:04.443Z,1012.57
2017-05-04T09:39:04.423Z,1012.54
2017-05-04T09:40:04.506Z,1012.57
2017-05-04T09:41:04.393Z,1012.54
2017-05-04T09:42:04.433Z,1012.6
2017-05-04T09:43:04.362Z,1012.57
2017-05-04T09:44:04.353Z,1012.58
2017-05-04T09:45:04.332Z,1012.61
2017-05-04T09:46:04.323Z,1012.6
2017-05-04T09:47:04.305Z,1012.59
2017-05-04T09:48:04.340Z,1012.62
2017-05-04T09:49:04.278Z,1012.6
2017-05-04T09:50:04.262Z,1012.5
2017-05-04T09:51:04.245Z,1012.56
2017-05-04T09:52:04.232Z,1012.59
2017-05-04T09:53:04.215Z,1012.58
2017-05-04T09:54:04.200Z,1012.61
2017-05-04T09:55:04.192Z,1012.56
2017-05-04T09:56:04.175Z,1012.59
2017-05-04T09:57:04.161Z,1012.59
2017-05-04T09:58:04.145Z,1012.6
2017-05-04T09:59:04.129Z,1012.57
2017-05-04T10:00:04.110Z,1012.57
2017-05-04T10:01:04.101Z,1012.61
2017-05-04T10:02:04.083Z,1012.57
2017-05-04T10:03:04.068Z,1012.6
2017-05-04T10:04:04.063Z,1012.62
2017-05-04T10:05:04.040Z,1012.64
2017-05-04T10:06:04.025Z,1012.65
2017-05-04T10:07:04.012Z,1012.64
2017-05-04T10:08:03.992Z,1012.61
2017-05-04T10:09:03.982Z,1012.62
2017-05-04T10:10:03.964Z,1012.58
2017-05-04T10:11:03.945Z,1012.59
2017-05-04T10:12:03.932Z,1012.62
2017-05-04T10:13:03.919Z,1012.62
2017-05-04T10:14:03.902Z,1012.66
2017-05-04T10:15:03.886Z,1012.63
2017-05-04T10:16:03.874Z,1012.63
2017-05-04T10:17:03.862Z,1012.6
2017-05-04T10:18:03.845Z,1012.56
2017-05-04T10:19:03.832Z,1012.62
2017-05-04T10:20:03.814Z,1012.6
2017-05-04T10:21:03.802Z,1012.59
2017-05-04T10:22:03.783Z,1012.6
2017-05-04T10:23:03.770Z,1012.59
2017-05-04T10:24:03.753Z,1012.58
2017-05-04T10:25:03.737Z,1012.59
2017-05-04T10:26:03.720Z,1012.62
2017-05-04T10:27:03.701Z,1012.62
2017-05-04T10:28:03.692Z,1012.61
2017-05-04T10:29:03.672Z,1012.59
2017-05-04T10:30:03.657Z,1012.62
2017-05-04T10:31:03.641Z,1012.63
2017-05-04T10:32:03.628Z,1012.55
2017-05-04T10:33:03.612Z,1012.6
2017-05-04T10:34:03.593Z,1012.6
2017-05-04T10:35:03.583Z,1012.56
2017-05-04T10:36:03.567Z,1012.58
2017-05-04T10:37:03.548Z,1012.65
2017-05-04T10:38:03.536Z,1012.66
2017-05-04T10:39:03.541Z,1012.68
2017-05-04T10:40:03.500Z,1012.65
2017-05-04T10:41:03.488Z,1012.66
2017-05-04T10:42:03.470Z,1012.66
2017-05-04T10:43:03.454Z,1012.7
2017-05-04T10:44:03.442Z,1012.68
2017-05-04T10:45:03.425Z,1012.64
2017-05-04T10:46:03.412Z,1012.62
2017-05-04T10:47:03.392Z,1012.66
2017-05-04T10:48:03.375Z,1012.63
2017-05-04T10:49:03.364Z,1012.64
2017-05-04T10:50:03.350Z,1012.62
2017-05-04T10:51:03.327Z,1012.69
2017-05-04T10:52:03.320Z,1012.63
2017-05-04T10:53:03.301Z,1012.65
2017-05-04T10:54:03.287Z,1012.61
2017-05-04T10:55:03.266Z,1012.65
2017-05-04T10:56:03.255Z,1012.65
2017-05-04T10:57:03.238Z,1012.61
2017-05-04T10:58:03.222Z,1012.62
2017-05-04T10:59:03.205Z,1012.72
2017-05-04T11:00:03.201Z,1012.65
2017-05-04T11:01:03.182Z,1012.63
2017-05-04T11:02:03.162Z,1012.6
2017-05-04T11:03:03.141Z,1012.59
2017-05-04T11:04:03.130Z,1012.64
2017-05-04T11:05:03.112Z,1012.6
2017-05-04T11:06:03.094Z,1012.57
2017-05-04T11:07:03.080Z,1012.61
2017-05-04T11:08:03.065Z,1012.55
2017-05-04T11:09:03.052Z,1012.53
2017-05-04T11:10:03.033Z,1012.55
2017-05-04T11:11:03.017Z,1012.51
2017-05-04T11:12:03.001Z,1012.5
2017-05-04T11:13:02.990Z,1012.55
2017-05-04T11:14:02.974Z,1012.53
2017-05-04T11:15:02.953Z,1012.55
2017-05-04T11:16:02.942Z,1012.56
2017-05-04T11:17:02.927Z,1012.51
2017-05-04T11:18:02.905Z,1012.6
2017-05-04T11:19:02.923Z,1012.63
2017-05-04T11:20:02.877Z,1012.55
2017-05-04T11:21:02.859Z,1012.57
2017-05-04T11:22:02.843Z,1012.58
2017-05-04T11:23:02.933Z,1012.51
2017-05-04T11:24:02.811Z,1012.53
2017-05-04T11:25:02.794Z,1012.52
2017-05-04T11:26:02.783Z,1012.54
2017-05-04T11:27:02.768Z,1012.51
2017-05-04T11:28:02.746Z,1012.56
2017-05-04T11:29:02.730Z,1012.56
2017-05-04T11:30:02.719Z,1012.57
2017-05-04T11:31:02.699Z,1012.52
2017-05-04T11:32:02.684Z,1012.58
2017-05-04T11:33:02.669Z,1012.57
2017-05-04T11:34:02.649Z,1012.57
2017-05-04T11:35:02.635Z,1012.56
2017-05-04T11:36:02.617Z,1012.66
2017-05-04T11:37:02.614Z,1012.57
2017-05-04T11:38:02.586Z,1012.57
2017-05-04T11:39:02.575Z,1012.55
2017-05-04T11:40:02.554Z,1012.57
2017-05-04T11:41:02.539Z,1012.55
2017-05-04T11:42:02.526Z,1012.55
2017-05-04T11:43:02.602Z,1012.51
2017-05-04T11:44:02.493Z,1012.53
2017-05-04T11:45:02.522Z,1012.55
2017-05-04T11:46:02.451Z,1012.46
2017-05-04T11:47:02.499Z,1012.51
2017-05-04T11:48:02.420Z,1012.49
2017-05-04T11:49:02.407Z,1012.48
2017-05-04T11:50:02.387Z,1012.44
2017-05-04T11:51:02.407Z,1012.46
2017-05-04T11:52:02.354Z,1012.44
2017-05-04T11:53:02.352Z,1012.48
2017-05-04T11:54:02.322Z,1012.46
2017-05-04T11:55:02.354Z,1012.47
2017-05-04T11:56:02.291Z,1012.48
2017-05-04T11:57:02.321Z,1012.49
2017-05-04T11:58:02.252Z,1012.43
2017-05-04T11:59:02.242Z,1012.44
2017-05-04T12:00:02.222Z,1012.47
2017-05-04T12:01:02.202Z,1012.41
2017-05-04T12:02:02.189Z,1012.46
2017-05-04T12:03:02.174Z,1012.37
2017-05-04T12:04:02.161Z,1012.42
2017-05-04T12:05:02.135Z,1012.44
2017-05-04T12:06:02.122Z,1012.4
2017-05-04T12:07:02.103Z,1012.4
2017-05-04T12:08:02.093Z,1012.45